Time;durP1;ratioP1;P1;durP2;ratioP2;P2;SDS_P1;SDS_P2;PMS_P1;PMS_P2;Temp;Humidity;BMP_temperature;BMP_pressure;BME280_temperature;BME280_humidity;BME280_pressure;Samples;Min_cycle;Max_cycle;Signal;HPM_P1;HPM_P2
2022/07/11 00:00:26;;;;;;;4.63;3.00;;;16.30;99.90;;;;;;5109403;28;20828;-50
2022/07/11 00:02:54;;;;;;;5.55;3.78;;;16.30;99.90;;;;;;5102077;28;20288;-49
2022/07/11 00:05:24;;;;;;;5.78;3.47;;;16.30;99.90;;;;;;5109917;28;20256;-49
2022/07/11 00:07:52;;;;;;;7.60;3.70;;;16.20;99.90;;;;;;5109997;28;20683;-51
2022/07/11 00:10:20;;;;;;;4.70;3.20;;;16.20;99.90;;;;;;5108837;28;20216;-51
2022/07/11 00:12:48;;;;;;;4.20;2.90;;;16.20;99.90;;;;;;5109601;28;20227;-50
2022/07/11 00:15:16;;;;;;;6.80;3.72;;;16.20;99.90;;;;;;5109100;28;20795;-50
2022/07/11 00:17:44;;;;;;;5.20;2.90;;;16.20;99.90;;;;;;5096709;28;20216;-50
2022/07/11 00:20:12;;;;;;;5.55;3.33;;;16.20;99.90;;;;;;5109570;28;20218;-50
2022/07/11 00:22:41;;;;;;;3.00;2.70;;;16.20;99.90;;;;;;5081297;28;20360;-50
2022/07/11 00:25:10;;;;;;;5.70;2.80;;;16.20;99.90;;;;;;5109571;28;20276;-50
2022/07/11 00:27:38;;;;;;;3.75;3.20;;;16.20;99.90;;;;;;5109237;28;20203;-51
2022/07/11 00:30:07;;;;;;;3.30;3.00;;;16.20;99.90;;;;;;5110104;28;20257;-50
2022/07/11 00:32:35;;;;;;;4.85;3.20;;;16.20;99.90;;;;;;5111977;28;20268;-51
2022/07/11 00:35:04;;;;;;;3.95;3.20;;;16.20;99.90;;;;;;5113916;28;20245;-48
2022/07/11 00:37:32;;;;;;;5.22;3.47;;;16.20;99.90;;;;;;5113629;28;20204;-51
2022/07/11 00:40:01;;;;;;;4.00;2.90;;;16.20;99.90;;;;;;5113363;28;20249;-50
2022/07/11 00:42:29;;;;;;;6.22;3.10;;;16.10;99.90;;;;;;5113025;28;20223;-50
2022/07/11 00:44:58;;;;;;;3.70;2.90;;;16.10;99.90;;;;;;5115957;28;20276;-51
2022/07/11 00:47:26;;;;;;;7.20;3.40;;;16.20;99.90;;;;;;5118192;28;20272;-51
2022/07/11 00:49:54;;;;;;;4.00;3.00;;;16.20;99.90;;;;;;5109369;28;20200;-50
2022/07/11 00:52:23;;;;;;;4.15;3.10;;;16.20;99.90;;;;;;5094802;28;20212;-49
2022/07/11 00:54:52;;;;;;;3.00;2.80;;;16.10;99.90;;;;;;5095924;28;20200;-49
2022/07/11 00:57:21;;;;;;;4.85;3.20;;;16.20;99.90;;;;;;5093269;28;20212;-51
2022/07/11 00:59:50;;;;;;;4.00;3.05;;;16.10;99.90;;;;;;5093460;28;20717;-50
2022/07/11 01:02:18;;;;;;;5.22;3.40;;;16.00;99.90;;;;;;5092649;28;20200;-49
2022/07/11 01:04:46;;;;;;;4.97;3.13;;;16.00;99.90;;;;;;5092083;28;20285;-50
2022/07/11 01:07:14;;;;;;;3.40;3.00;;;16.10;99.90;;;;;;5093248;28;20255;-51
2022/07/11 01:09:43;;;;;;;3.20;2.80;;;16.10;99.90;;;;;;5092110;28;20208;-50
2022/07/11 01:12:11;;;;;;;6.03;3.05;;;16.10;99.90;;;;;;5092556;28;20645;-49
2022/07/11 01:14:50;;;;;;;5.55;3.30;;;16.10;99.90;;;;;;5092357;28;20220;-49
2022/07/11 01:17:18;;;;;;;3.45;2.88;;;16.10;99.90;;;;;;5096699;28;20201;-50
2022/07/11 01:19:47;;;;;;;4.43;3.10;;;16.10;99.90;;;;;;5098935;28;20251;-50
2022/07/11 01:22:16;;;;;;;4.43;2.88;;;16.10;99.90;;;;;;5095080;28;20261;-50
2022/07/11 01:24:45;;;;;;;3.08;2.70;;;16.10;99.90;;;;;;5091669;28;20258;-50
2022/07/11 01:27:14;;;;;;;6.47;2.90;;;16.10;99.90;;;;;;5092233;28;20687;-49
2022/07/11 01:29:42;;;;;;;6.22;3.03;;;16.10;99.90;;;;;;5092035;28;20209;-50
2022/07/11 01:32:10;;;;;;;6.30;2.92;;;16.10;99.90;;;;;;5112188;28;20211;-50
2022/07/11 01:34:38;;;;;;;7.15;3.08;;;16.10;99.90;;;;;;5112487;28;20203;-50
2022/07/11 01:37:06;;;;;;;7.00;3.47;;;16.10;99.90;;;;;;5112703;28;20268;-49
2022/07/11 01:39:34;;;;;;;5.78;3.00;;;16.10;99.90;;;;;;5111560;28;20269;-51
2022/07/11 01:42:04;;;;;;;6.45;3.10;;;16.20;99.90;;;;;;5112418;28;20687;-51
2022/07/11 01:44:32;;;;;;;4.63;3.03;;;16.10;99.90;;;;;;5110364;28;20694;-51
2022/07/11 01:47:00;;;;;;;4.85;3.60;;;16.00;99.90;;;;;;5112697;28;20276;-49
2022/07/11 01:49:29;;;;;;;4.03;2.80;;;16.10;99.90;;;;;;5112427;28;20277;-49
2022/07/11 01:51:57;;;;;;;4.78;3.03;;;16.10;99.90;;;;;;5108668;28;20207;-50
2022/07/11 01:54:25;;;;;;;4.13;3.10;;;16.10;99.90;;;;;;5097033;28;20789;-51
2022/07/11 01:56:53;;;;;;;5.20;2.95;;;16.10;99.90;;;;;;5112560;28;20260;-51
2022/07/11 01:59:23;;;;;;;6.40;2.90;;;16.10;99.90;;;;;;5099963;28;20220;-49
2022/07/11 02:01:52;;;;;;;5.18;3.30;;;16.10;99.90;;;;;;5101480;28;20256;-49
2022/07/11 02:04:21;;;;;;;6.00;3.67;;;16.10;99.90;;;;;;5111700;28;20763;-51
2022/07/11 02:06:49;;;;;;;4.85;3.20;;;16.00;99.90;;;;;;5111517;28;20241;-50
2022/07/11 02:09:17;;;;;;;6.07;3.03;;;16.00;99.90;;;;;;5111270;28;20838;-51
2022/07/11 02:11:45;;;;;;;5.40;3.50;;;16.00;99.90;;;;;;5112042;28;20211;-50
2022/07/11 02:14:13;;;;;;;7.55;2.95;;;16.00;99.90;;;;;;5112285;28;20268;-50
2022/07/11 02:16:43;;;;;;;7.18;3.13;;;16.00;99.90;;;;;;5111899;28;20208;-50
2022/07/11 02:19:11;;;;;;;6.65;3.40;;;16.00;99.90;;;;;;5111378;28;20298;-51
2022/07/11 02:21:39;;;;;;;3.22;2.90;;;16.10;99.90;;;;;;5111343;28;20577;-49
2022/07/11 02:24:08;;;;;;;5.32;3.13;;;16.10;99.90;;;;;;5111238;28;20219;-50
2022/07/11 02:26:36;;;;;;;5.35;3.00;;;16.10;99.90;;;;;;5111118;28;20280;-51
2022/07/11 02:29:04;;;;;;;6.20;3.10;;;16.10;99.90;;;;;;5111383;28;20252;-51
2022/07/11 02:31:32;;;;;;;6.13;3.22;;;16.10;99.90;;;;;;5111548;28;20207;-51
2022/07/11 02:34:02;;;;;;;6.07;3.13;;;16.10;99.90;;;;;;5110917;28;20228;-51
2022/07/11 02:36:30;;;;;;;7.60;3.30;;;16.10;99.90;;;;;;5111755;28;20199;-51
2022/07/11 02:38:58;;;;;;;7.35;3.20;;;16.10;99.90;;;;;;5111099;28;20207;-50
2022/07/11 02:41:26;;;;;;;7.80;3.70;;;16.10;99.90;;;;;;5111607;28;20627;-49
2022/07/11 02:43:54;;;;;;;8.00;3.03;;;16.10;99.90;;;;;;5111390;28;20288;-51
2022/07/11 02:46:22;;;;;;;5.63;3.33;;;16.10;99.90;;;;;;5105131;28;20232;-51
2022/07/11 02:48:50;;;;;;;8.93;3.60;;;16.10;99.90;;;;;;5102731;28;20238;-51
2022/07/11 02:51:20;;;;;;;8.52;3.50;;;16.10;99.90;;;;;;5110482;28;20619;-51
2022/07/11 02:53:48;;;;;;;7.10;3.70;;;16.10;99.90;;;;;;5102869;28;20224;-51
2022/07/11 02:56:16;;;;;;;5.97;3.58;;;16.10;99.90;;;;;;5110409;28;20211;-51
2022/07/11 02:58:44;;;;;;;6.13;3.25;;;16.10;99.90;;;;;;5103923;28;20661;-51
2022/07/11 03:01:11;;;;;;;5.95;3.20;;;16.00;99.90;;;;;;5090539;28;20204;-51
2022/07/11 03:03:39;;;;;;;4.75;3.42;;;16.10;99.90;;;;;;5089502;28;20220;-51
2022/07/11 03:06:07;;;;;;;5.38;3.35;;;16.10;99.90;;;;;;5089870;28;20226;-51
2022/07/11 03:08:37;;;;;;;7.18;3.08;;;16.10;99.90;;;;;;5089442;28;20261;-51
2022/07/11 03:11:06;;;;;;;8.55;3.40;;;16.10;99.90;;;;;;5089980;28;20235;-51
2022/07/11 03:13:35;;;;;;;8.65;3.65;;;16.10;99.90;;;;;;5089449;28;20227;-52
2022/07/11 03:16:04;;;;;;;5.70;3.35;;;16.10;99.90;;;;;;5089905;28;20207;-51
2022/07/11 03:18:32;;;;;;;6.88;3.35;;;16.10;99.90;;;;;;5089529;28;20224;-51
2022/07/11 03:21:00;;;;;;;7.00;3.25;;;16.10;99.90;;;;;;5089656;28;20204;-50
2022/07/11 03:23:28;;;;;;;6.35;3.90;;;16.10;99.90;;;;;;5089179;28;20224;-51
2022/07/11 03:25:58;;;;;;;4.60;3.45;;;16.10;99.90;;;;;;5089829;28;20281;-51
2022/07/11 03:28:26;;;;;;;5.72;3.60;;;16.10;99.90;;;;;;5089831;28;20208;-51
2022/07/11 03:30:54;;;;;;;7.13;4.40;;;16.10;99.90;;;;;;5089935;28;20204;-51
2022/07/11 03:33:23;;;;;;;7.72;4.00;;;16.10;99.90;;;;;;5089143;28;20231;-55
2022/07/11 03:35:51;;;;;;;8.32;4.05;;;16.00;99.90;;;;;;5089803;28;20201;-51
2022/07/11 03:38:20;;;;;;;5.68;3.50;;;16.00;99.90;;;;;;5090212;28;20219;-51
2022/07/11 03:40:48;;;;;;;7.80;3.65;;;16.00;99.90;;;;;;5089291;28;20208;-51
2022/07/11 03:43:18;;;;;;;6.38;3.70;;;16.10;99.90;;;;;;5090305;28;20223;-51
2022/07/11 03:45:46;;;;;;;6.57;3.42;;;16.00;99.90;;;;;;5088985;28;20220;-51
2022/07/11 03:48:15;;;;;;;5.85;3.50;;;16.00;99.90;;;;;;5089779;28;20236;-51
2022/07/11 03:50:43;;;;;;;8.50;3.40;;;16.00;99.90;;;;;;5089896;28;20211;-50
2022/07/11 03:53:11;;;;;;;4.75;3.40;;;16.00;99.90;;;;;;5090251;28;20845;-51
2022/07/11 03:55:39;;;;;;;9.10;3.90;;;16.10;99.90;;;;;;5089409;28;20242;-51
2022/07/11 03:58:07;;;;;;;5.70;3.70;;;16.10;99.90;;;;;;5089620;28;20623;-50
2022/07/11 04:00:37;;;;;;;5.55;4.05;;;16.10;99.90;;;;;;5088644;28;20254;-50
2022/07/11 04:03:05;;;;;;;8.52;4.53;;;16.10;99.90;;;;;;5089510;28;20224;-51
2022/07/11 04:05:33;;;;;;;7.38;4.13;;;16.10;99.90;;;;;;5104714;28;20219;-49
2022/07/11 04:08:01;;;;;;;9.05;4.20;;;16.10;99.90;;;;;;5113989;28;20215;-50
2022/07/11 04:10:30;;;;;;;7.82;4.03;;;16.10;99.90;;;;;;5114024;28;20233;-51
2022/07/11 04:12:58;;;;;;;6.68;3.83;;;16.10;99.90;;;;;;5114018;28;20223;-51
2022/07/11 04:15:26;;;;;;;4.13;3.70;;;16.10;99.90;;;;;;5113468;28;20259;-51
2022/07/11 04:17:55;;;;;;;4.80;4.18;;;16.10;99.90;;;;;;5114223;28;20215;-50
2022/07/11 04:20:23;;;;;;;4.63;4.10;;;16.10;99.90;;;;;;5113760;28;20207;-49
2022/07/11 04:22:51;;;;;;;8.13;4.50;;;16.10;99.90;;;;;;5113981;28;20227;-51
2022/07/11 04:25:19;;;;;;;5.22;4.72;;;16.10;99.90;;;;;;5114122;28;20230;-51
2022/07/11 04:27:47;;;;;;;10.10;4.20;;;16.10;99.90;;;;;;5113959;28;20258;-51
2022/07/11 04:30:15;;;;;;;7.03;4.03;;;16.10;99.90;;;;;;5104081;28;20208;-51
2022/07/11 04:32:44;;;;;;;10.25;5.03;;;16.10;99.90;;;;;;5110513;28;20231;-51
2022/07/11 04:35:13;;;;;;;10.48;5.30;;;16.20;99.90;;;;;;5113944;28;20196;-50
2022/07/11 04:37:41;;;;;;;7.68;4.70;;;16.10;99.90;;;;;;5113399;28;20586;-50
2022/07/11 04:40:09;;;;;;;8.98;4.47;;;16.10;99.90;;;;;;5113618;28;20264;-51
2022/07/11 04:42:40;;;;;;;7.53;4.78;;;16.10;99.90;;;;;;5120159;28;20251;-50
2022/07/11 04:45:09;;;;;;;6.65;4.80;;;16.10;99.90;;;;;;5120679;28;20244;-50
2022/07/11 04:47:37;;;;;;;7.25;5.25;;;16.20;99.90;;;;;;5115393;28;20253;-50
2022/07/11 04:50:06;;;;;;;10.07;6.53;;;16.20;99.90;;;;;;5113139;28;20207;-50
2022/07/11 04:52:35;;;;;;;8.90;6.45;;;16.20;99.90;;;;;;5113944;28;20227;-50
2022/07/11 04:55:04;;;;;;;7.35;6.15;;;16.20;99.90;;;;;;5113698;28;20356;-49
2022/07/11 04:57:32;;;;;;;6.63;6.03;;;16.20;99.90;;;;;;5113647;28;20555;-49
2022/07/11 05:00:00;;;;;;;6.97;5.97;;;16.20;99.90;;;;;;5096000;28;20208;-49
2022/07/11 05:02:28;;;;;;;7.32;6.63;;;16.20;99.90;;;;;;5092329;28;20212;-49
2022/07/11 05:04:56;;;;;;;6.97;6.28;;;16.20;99.90;;;;;;5092940;28;20208;-50
2022/07/11 05:07:24;;;;;;;8.93;6.82;;;16.20;99.90;;;;;;5093575;28;20270;-50
2022/07/11 05:09:54;;;;;;;7.25;6.47;;;16.30;99.90;;;;;;5092682;28;20200;-51
2022/07/11 05:12:22;;;;;;;7.20;6.18;;;16.30;99.90;;;;;;5092819;28;20249;-48
2022/07/11 05:14:50;;;;;;;6.93;6.30;;;16.30;99.90;;;;;;5092373;28;20669;-53
2022/07/11 05:17:19;;;;;;;8.57;7.75;;;16.30;99.90;;;;;;5091788;28;20207;-50
2022/07/11 05:19:47;;;;;;;7.95;6.93;;;16.30;99.90;;;;;;5090077;28;20204;-51
2022/07/11 05:22:15;;;;;;;9.45;7.30;;;16.30;99.90;;;;;;5078886;28;20208;-50
2022/07/11 05:24:43;;;;;;;9.50;7.60;;;16.30;99.90;;;;;;5091509;28;20212;-49
2022/07/11 05:27:12;;;;;;;9.10;7.18;;;16.30;99.90;;;;;;5092571;28;20220;-50
2022/07/11 05:29:41;;;;;;;11.07;7.72;;;16.30;99.90;;;;;;5091740;28;20208;-50
2022/07/11 05:32:09;;;;;;;9.02;7.68;;;16.30;99.90;;;;;;5091362;28;20665;-50
2022/07/11 05:34:38;;;;;;;8.85;7.45;;;16.30;99.90;;;;;;5091522;28;20204;-50
2022/07/11 05:37:06;;;;;;;8.15;7.35;;;16.30;99.90;;;;;;5091343;28;20238;-51
2022/07/11 05:39:34;;;;;;;9.23;7.93;;;16.20;99.90;;;;;;5090590;28;20204;-51
2022/07/11 05:42:02;;;;;;;12.48;8.68;;;16.20;99.90;;;;;;5090289;28;20215;-50
2022/07/11 05:44:32;;;;;;;10.63;8.95;;;16.20;99.90;;;;;;5087730;28;20254;-50
2022/07/11 05:47:01;;;;;;;9.18;7.85;;;16.30;99.90;;;;;;5070974;28;20669;-50
2022/07/11 05:49:31;;;;;;;11.55;9.35;;;16.30;99.90;;;;;;5072650;28;20693;-51
2022/07/11 05:51:59;;;;;;;13.02;8.95;;;16.30;99.90;;;;;;5073812;28;20288;-50
2022/07/11 05:54:28;;;;;;;9.77;8.77;;;16.30;99.90;;;;;;5076018;28;20281;-51
2022/07/11 05:56:56;;;;;;;13.95;10.63;;;16.30;99.90;;;;;;5074759;28;20204;-51
2022/07/11 05:59:24;;;;;;;9.60;8.60;;;16.30;99.90;;;;;;5075037;28;20213;-51
2022/07/11 06:01:53;;;;;;;11.75;9.95;;;16.30;99.90;;;;;;5073628;28;20260;-51
2022/07/11 06:04:22;;;;;;;11.15;9.68;;;16.30;99.90;;;;;;5077375;28;20285;-51
2022/07/11 06:06:50;;;;;;;11.88;9.00;;;16.40;99.90;;;;;;5090842;28;20220;-50
2022/07/11 06:09:17;;;;;;;8.40;7.38;;;16.40;99.90;;;;;;5090709;28;20582;-50
2022/07/11 06:11:45;;;;;;;5.45;5.05;;;16.40;99.90;;;;;;5092121;28;20807;-49
2022/07/11 06:14:13;;;;;;;4.70;4.30;;;16.50;99.90;;;;;;5091712;28;20228;-50
2022/07/11 06:16:41;;;;;;;4.15;3.85;;;16.50;99.90;;;;;;5090702;28;20246;-50
2022/07/11 06:19:10;;;;;;;4.53;3.83;;;16.60;99.90;;;;;;5091201;28;20289;-50
2022/07/11 06:21:39;;;;;;;2.78;2.47;;;16.70;99.90;;;;;;5091371;28;20342;-51
2022/07/11 06:24:07;;;;;;;2.60;2.40;;;16.80;99.90;;;;;;5090012;28;20220;-50
2022/07/11 06:26:35;;;;;;;2.70;2.50;;;16.90;99.90;;;;;;5091353;28;20208;-50
2022/07/11 06:29:03;;;;;;;2.72;2.50;;;17.00;99.90;;;;;;5089211;28;20277;-50
2022/07/11 06:31:31;;;;;;;2.08;1.88;;;17.00;99.90;;;;;;5090548;28;20209;-50
2022/07/11 06:34:00;;;;;;;2.20;2.05;;;17.10;99.90;;;;;;5090331;28;20231;-50
2022/07/11 06:36:29;;;;;;;1.90;1.80;;;17.10;99.90;;;;;;5090148;28;20208;-50
2022/07/11 06:38:57;;;;;;;4.35;2.20;;;17.20;99.90;;;;;;5086356;28;20253;-49
2022/07/11 06:41:25;;;;;;;2.15;2.05;;;17.30;99.90;;;;;;5068073;28;20208;-50
2022/07/11 06:43:53;;;;;;;2.10;2.00;;;17.40;99.90;;;;;;5070171;28;20224;-50
2022/07/11 06:46:21;;;;;;;2.25;2.10;;;17.50;99.90;;;;;;5084598;28;20249;-50
2022/07/11 06:48:49;;;;;;;2.40;2.20;;;17.60;99.90;;;;;;5085007;28;20307;-50
2022/07/11 06:51:17;;;;;;;2.95;2.65;;;17.70;99.90;;;;;;5087707;28;20687;-50
2022/07/11 06:53:47;;;;;;;2.88;2.60;;;17.80;99.90;;;;;;5087703;28;20650;-50
2022/07/11 06:56:15;;;;;;;2.90;2.70;;;17.80;99.90;;;;;;5088368;28;20207;-50
2022/07/11 06:58:43;;;;;;;2.95;2.75;;;17.80;99.90;;;;;;5086847;28;20677;-51
2022/07/11 07:01:11;;;;;;;3.80;2.88;;;17.80;99.90;;;;;;5089161;28;20208;-50
2022/07/11 07:03:39;;;;;;;4.63;4.22;;;17.80;99.90;;;;;;5080532;28;20228;-47
2022/07/11 07:06:08;;;;;;;4.13;3.72;;;17.80;99.90;;;;;;5083200;28;20204;-50
2022/07/11 07:08:36;;;;;;;4.45;3.92;;;17.70;99.90;;;;;;5082734;28;20224;-50
2022/07/11 07:11:06;;;;;;;6.68;4.15;;;17.70;99.90;;;;;;5085906;28;20208;-50
2022/07/11 07:13:36;;;;;;;5.75;5.15;;;17.70;99.90;;;;;;5086895;28;20591;-50
2022/07/11 07:16:06;;;;;;;6.22;5.30;;;17.70;99.90;;;;;;5088628;28;20253;-50
2022/07/11 07:18:40;;;;;;;6.20;5.63;;;17.70;99.90;;;;;;5077340;28;20696;-51
2022/07/11 07:21:09;;;;;;;8.43;5.95;;;17.70;99.90;;;;;;5086282;28;20269;-51
2022/07/11 07:23:37;;;;;;;9.65;6.68;;;17.60;99.90;;;;;;5086702;28;20224;-49
2022/07/11 07:26:07;;;;;;;7.43;5.72;;;17.70;99.90;;;;;;5086353;28;20212;-51
2022/07/11 07:28:35;;;;;;;6.63;6.03;;;17.80;99.90;;;;;;5081682;28;20236;-51
2022/07/11 07:31:04;;;;;;;6.80;5.85;;;17.90;99.90;;;;;;5083221;28;20299;-50
2022/07/11 07:33:32;;;;;;;6.93;6.28;;;18.00;99.90;;;;;;5083839;28;20236;-54
2022/07/11 07:36:13;;;;;;;9.25;6.28;;;17.90;99.90;;;;;;5092152;28;20192;-51
2022/07/11 07:38:43;;;;;;;8.60;6.10;;;17.70;99.90;;;;;;5085436;28;20250;-51
2022/07/11 07:41:14;;;;;;;8.00;5.40;;;17.60;99.90;;;;;;5089255;28;20574;-51
2022/07/11 07:43:42;;;;;;;10.07;6.60;;;17.60;99.90;;;;;;5086640;28;20275;-51
2022/07/11 07:46:11;;;;;;;11.95;6.30;;;17.60;99.90;;;;;;5089572;28;20233;-50
2022/07/11 07:48:42;;;;;;;7.43;5.80;;;17.50;99.90;;;;;;5088349;28;20311;-50
2022/07/11 07:51:11;;;;;;;11.88;6.80;;;17.50;99.90;;;;;;5091689;28;20210;-50
2022/07/11 07:53:39;;;;;;;8.52;6.53;;;17.60;99.90;;;;;;5090271;28;20228;-49
2022/07/11 07:56:07;;;;;;;8.20;6.07;;;17.60;99.90;;;;;;5092316;28;20291;-51
2022/07/11 07:58:38;;;;;;;7.50;6.60;;;17.70;99.90;;;;;;5087761;28;20204;-51
2022/07/11 08:03:54;;;;;;;8.20;6.30;;;17.70;99.90;;;;;;5089243;28;20712;-50
2022/07/11 08:06:23;;;;;;;6.90;6.20;;;17.80;99.90;;;;;;5091672;28;20250;-51
2022/07/11 08:08:51;;;;;;;7.25;6.03;;;17.90;99.90;;;;;;5089860;28;20230;-51
2022/07/11 08:11:19;;;;;;;8.80;5.82;;;18.10;99.90;;;;;;5097532;28;20208;-50
2022/07/11 08:14:00;;;;;;;6.55;5.95;;;18.20;99.90;;;;;;5096458;28;20227;-51
2022/07/11 08:16:30;;;;;;;8.82;6.15;;;18.20;99.90;;;;;;5093558;28;20214;-50
2022/07/11 08:19:00;;;;;;;6.60;5.95;;;18.20;99.90;;;;;;5092378;28;20212;-51
2022/07/11 08:21:29;;;;;;;9.07;6.25;;;18.10;99.90;;;;;;5092553;28;20212;-51
2022/07/11 08:23:57;;;;;;;6.57;5.80;;;18.10;99.90;;;;;;5092127;28;20287;-51
2022/07/11 08:26:25;;;;;;;6.45;5.72;;;18.00;99.90;;;;;;5091534;28;20249;-51
2022/07/11 08:29:02;;;;;;;7.82;5.75;;;18.00;99.90;;;;;;5087380;28;20233;-51
2022/07/11 08:31:30;;;;;;;7.05;5.90;;;17.90;99.90;;;;;;5088141;28;20211;-51
2022/07/11 08:33:59;;;;;;;6.72;5.72;;;17.90;99.90;;;;;;5090559;28;20353;-51
2022/07/11 08:36:29;;;;;;;7.65;6.47;;;18.00;99.90;;;;;;5086283;28;20290;-51
2022/07/11 08:38:58;;;;;;;7.15;6.10;;;18.00;99.90;;;;;;5087307;28;20228;-51
2022/07/11 08:41:27;;;;;;;6.97;5.80;;;18.20;99.90;;;;;;5090362;28;20204;-51
2022/07/11 08:43:55;;;;;;;7.72;5.50;;;18.30;99.90;;;;;;5090747;28;20224;-51
2022/07/11 08:46:26;;;;;;;8.30;5.80;;;18.50;99.90;;;;;;5088313;28;20208;-51
2022/07/11 08:48:56;;;;;;;5.60;5.07;;;18.60;99.90;;;;;;5087504;28;20228;-51
2022/07/11 08:51:27;;;;;;;8.13;5.20;;;18.60;99.90;;;;;;5089010;28;20208;-51
2022/07/11 08:53:55;;;;;;;8.65;5.40;;;18.70;99.90;;;;;;5091460;28;20730;-51
2022/07/11 08:56:24;;;;;;;8.85;5.55;;;18.60;99.90;;;;;;5093775;28;20220;-50
2022/07/11 08:58:53;;;;;;;6.50;5.45;;;18.60;99.90;;;;;;5093788;28;20212;-51
2022/07/11 09:01:29;;;;;;;5.75;5.25;;;18.60;99.90;;;;;;5093603;28;20208;-51
2022/07/11 09:03:58;;;;;;;7.57;5.13;;;18.70;99.90;;;;;;5093597;28;20224;-51
2022/07/11 09:06:27;;;;;;;5.85;5.18;;;18.80;99.90;;;;;;5092207;28;20684;-51
2022/07/11 09:08:59;;;;;;;5.50;5.00;;;18.90;99.90;;;;;;5092191;28;20232;-52
2022/07/11 09:11:27;;;;;;;6.43;5.32;;;18.90;99.90;;;;;;5091693;28;20216;-50
2022/07/11 09:13:56;;;;;;;5.85;4.72;;;18.90;99.90;;;;;;5096231;28;20313;-51
2022/07/11 09:16:28;;;;;;;7.60;5.03;;;18.90;99.90;;;;;;5097652;28;20203;-51
2022/07/11 09:19:00;;;;;;;8.90;5.57;;;18.90;99.90;;;;;;5092875;28;20243;-51
2022/07/11 09:26:59;;;;;;;5.40;4.70;;;18.90;99.90;;;;;;5084316;28;20625;-51
2022/07/11 09:29:27;;;;;;;7.63;5.45;;;18.90;99.90;;;;;;5086824;28;20220;-51
2022/07/11 09:31:57;;;;;;;6.82;4.93;;;18.90;99.90;;;;;;5090946;28;20204;-51
2022/07/11 09:34:27;;;;;;;6.20;4.53;;;18.80;99.90;;;;;;5087696;28;20231;-51
2022/07/11 09:36:57;;;;;;;5.05;4.60;;;18.80;99.90;;;;;;5090746;28;20794;-52
2022/07/11 09:39:27;;;;;;;7.55;5.20;;;18.80;99.90;;;;;;5089013;28;20196;-51
2022/07/11 09:41:56;;;;;;;5.85;5.35;;;18.60;99.90;;;;;;5088241;28;20257;-51
2022/07/11 09:44:27;;;;;;;7.72;5.40;;;18.50;99.90;;;;;;5092590;28;20252;-51
2022/07/11 09:46:58;;;;;;;5.80;5.30;;;18.50;99.90;;;;;;5087545;28;20264;-49
2022/07/11 09:49:36;;;;;;;5.32;4.78;;;18.40;99.90;;;;;;5088056;28;20232;-50
2022/07/11 09:52:10;;;;;;;5.18;4.60;;;18.50;99.90;;;;;;5080316;28;20203;-50
2022/07/11 09:54:56;;;;;;;5.35;4.50;;;18.60;99.90;;;;;;5087311;28;20249;-51
2022/07/11 09:57:35;;;;;;;6.13;5.00;;;18.70;99.90;;;;;;5087213;28;20215;-51
2022/07/11 10:00:06;;;;;;;8.15;4.63;;;19.00;99.90;;;;;;5085669;28;20208;-51
2022/07/11 10:02:36;;;;;;;5.38;4.55;;;19.20;99.90;;;;;;5087507;28;20231;-52
2022/07/11 10:05:05;;;;;;;5.53;4.63;;;19.20;99.90;;;;;;5083940;28;20235;-52
2022/07/11 10:07:33;;;;;;;5.32;4.32;;;19.10;99.90;;;;;;5088428;28;20218;-50
2022/07/11 10:10:04;;;;;;;6.93;5.07;;;19.10;99.90;;;;;;5081660;28;20244;-52
2022/07/11 10:12:32;;;;;;;5.20;4.70;;;19.00;99.90;;;;;;5088480;28;20224;-51
2022/07/11 10:15:03;;;;;;;4.22;3.83;;;19.00;99.90;;;;;;5090076;28;20200;-50
2022/07/11 10:17:43;;;;;;;4.53;4.13;;;18.90;99.90;;;;;;5090404;28;20207;-51
2022/07/11 10:20:20;;;;;;;4.93;4.20;;;18.90;99.90;;;;;;5089210;28;20816;-55
2022/07/11 10:22:54;;;;;;;4.53;4.10;;;18.80;99.90;;;;;;5090571;28;20273;-51
2022/07/11 10:25:29;;;;;;;5.05;4.10;;;18.80;99.90;;;;;;5089924;28;20715;-51
2022/07/11 10:28:15;;;;;;;7.10;4.40;;;19.00;99.90;;;;;;5090340;28;20214;-51
2022/07/11 10:30:48;;;;;;;4.88;4.40;;;19.00;99.90;;;;;;5087683;28;20817;-52
2022/07/11 10:33:19;;;;;;;5.07;4.15;;;19.10;99.90;;;;;;5088812;28;20612;-51
2022/07/11 10:35:49;;;;;;;5.70;4.50;;;19.10;99.90;;;;;;5089870;28;20942;-51
2022/07/11 10:38:18;;;;;;;6.30;4.50;;;19.10;99.90;;;;;;5084882;28;20936;-51
2022/07/11 10:40:49;;;;;;;4.90;3.97;;;19.20;99.90;;;;;;5088962;28;20213;-51
2022/07/11 10:43:36;;;;;;;7.18;4.38;;;19.20;99.90;;;;;;5088591;28;20810;-52
2022/07/11 10:46:06;;;;;;;4.35;3.70;;;19.20;99.90;;;;;;5088975;28;20200;-51
2022/07/11 10:48:37;;;;;;;6.07;4.10;;;19.20;99.90;;;;;;5088808;28;20287;-51
2022/07/11 10:51:26;;;;;;;4.57;3.95;;;19.40;99.90;;;;;;5084425;28;20725;-52
2022/07/11 10:53:54;;;;;;;4.35;3.95;;;19.60;99.90;;;;;;5083841;28;20224;-52
2022/07/11 10:56:46;;;;;;;4.35;3.83;;;19.80;99.90;;;;;;5088948;28;20635;-50
2022/07/11 10:59:23;;;;;;;4.70;4.30;;;20.10;99.90;;;;;;5088589;28;20219;-51
2022/07/11 11:02:11;;;;;;;5.75;4.95;;;20.30;99.90;;;;;;5088053;28;21017;-51
2022/07/11 11:04:50;;;;;;;6.05;4.22;;;20.20;99.90;;;;;;5086569;28;20677;-51
2022/07/11 11:07:36;;;;;;;6.30;4.22;;;20.10;99.90;;;;;;5084585;28;20212;-51
2022/07/11 11:10:23;;;;;;;4.38;3.97;;;19.90;99.90;;;;;;5086595;28;20248;-52
2022/07/11 11:13:10;;;;;;;4.30;3.90;;;19.80;99.90;;;;;;5086234;28;20223;-52
2022/07/11 11:15:41;;;;;;;5.82;3.83;;;19.60;99.90;;;;;;5087567;28;20208;-52
2022/07/11 11:18:36;;;;;;;4.50;4.00;;;19.50;99.90;;;;;;5087861;28;20212;-51
2022/07/11 11:21:16;;;;;;;5.05;4.10;;;19.40;99.90;;;;;;5086365;28;20200;-52
2022/07/11 11:23:47;;;;;;;5.38;4.05;;;19.30;99.90;;;;;;5086128;28;21152;-51
2022/07/11 11:26:19;;;;;;;5.32;4.10;;;19.20;99.90;;;;;;5087104;28;20204;-51
2022/07/11 11:29:06;;;;;;;5.18;4.53;;;19.00;99.90;;;;;;5086103;28;20204;-52
2022/07/11 11:31:35;;;;;;;6.30;4.15;;;19.00;99.90;;;;;;5084194;28;20696;-51
2022/07/11 11:34:05;;;;;;;6.30;4.43;;;18.90;99.90;;;;;;5086204;28;20235;-52
2022/07/11 11:36:34;;;;;;;6.50;4.57;;;19.10;99.90;;;;;;5087612;28;20196;-51
2022/07/11 11:39:02;;;;;;;6.03;4.53;;;19.30;99.90;;;;;;5094088;28;20273;-50
2022/07/11 11:41:32;;;;;;;4.95;4.45;;;19.50;99.90;;;;;;5095075;28;20204;-51
2022/07/11 11:44:01;;;;;;;5.32;4.47;;;19.70;99.90;;;;;;5093229;28;20269;-51
2022/07/11 11:46:33;;;;;;;5.45;4.63;;;20.00;99.90;;;;;;5089744;28;20204;-51
2022/07/11 11:49:03;;;;;;;4.65;4.25;;;20.30;99.90;;;;;;5088646;28;20192;-51
2022/07/11 11:51:33;;;;;;;4.65;4.25;;;20.30;99.90;;;;;;5089381;28;20285;-51
2022/07/11 11:54:03;;;;;;;4.78;4.18;;;20.40;99.90;;;;;;5102040;28;20288;-50
2022/07/11 11:56:33;;;;;;;4.38;3.97;;;20.50;99.90;;;;;;5090169;28;20204;-52
2022/07/11 11:59:02;;;;;;;4.13;3.72;;;20.50;99.90;;;;;;5083553;28;20200;-51
2022/07/11 12:01:37;;;;;;;5.18;4.10;;;20.50;99.90;;;;;;5087124;28;20200;-52
2022/07/11 12:04:07;;;;;;;3.78;3.40;;;20.30;99.90;;;;;;5089191;28;20628;-52
2022/07/11 12:06:40;;;;;;;4.40;4.00;;;20.20;99.90;;;;;;5089111;28;20203;-52
2022/07/11 12:09:09;;;;;;;4.30;3.80;;;20.00;99.90;;;;;;5084461;28;20208;-52
2022/07/11 12:11:38;;;;;;;5.82;4.20;;;19.90;99.90;;;;;;5070590;28;20270;-51
2022/07/11 12:14:07;;;;;;;4.78;4.25;;;19.90;99.90;;;;;;5085869;28;20224;-51
2022/07/11 12:16:42;;;;;;;5.95;4.20;;;19.80;99.90;;;;;;5086455;28;20204;-51
2022/07/11 12:19:19;;;;;;;5.13;4.70;;;19.80;99.90;;;;;;5086235;28;20295;-51
2022/07/11 12:21:50;;;;;;;4.90;4.40;;;19.90;99.90;;;;;;5084747;28;20197;-51
2022/07/11 12:24:20;;;;;;;5.47;4.10;;;20.10;99.90;;;;;;5084514;28;20228;-52
2022/07/11 12:26:49;;;;;;;5.68;4.20;;;20.60;99.90;;;;;;5084369;28;20578;-52
2022/07/11 12:29:19;;;;;;;4.05;3.75;;;20.90;99.90;;;;;;5089900;28;20261;-53
2022/07/11 12:31:49;;;;;;;6.78;3.70;;;21.10;99.90;;;;;;5089898;28;20234;-51
2022/07/11 12:34:19;;;;;;;5.03;3.80;;;21.20;99.90;;;;;;5090581;28;20220;-53
2022/07/11 12:36:51;;;;;;;4.57;4.10;;;21.10;99.90;;;;;;5089246;28;20665;-52
2022/07/11 12:39:24;;;;;;;4.32;3.92;;;20.90;99.90;;;;;;5097252;28;20253;-51
2022/07/11 12:41:53;;;;;;;3.95;3.65;;;20.60;99.90;;;;;;5095533;28;20205;-52
2022/07/11 12:47:11;;;;;;;3.80;3.50;;;20.70;99.90;;;;;;5073107;28;20756;-53
2022/07/11 12:49:44;;;;;;;3.83;3.30;;;20.80;99.90;;;;;;5083652;28;20200;-52
2022/07/11 12:52:14;;;;;;;3.63;3.30;;;21.10;99.90;;;;;;5088414;28;20767;-52
2022/07/11 12:54:43;;;;;;;3.58;3.22;;;21.30;99.90;;;;;;5086940;28;20226;-51
2022/07/11 12:57:17;;;;;;;4.70;3.15;;;21.50;99.90;;;;;;5087476;28;20733;-51
2022/07/11 12:59:45;;;;;;;3.53;3.22;;;21.60;99.90;;;;;;5086689;28;20584;-53
2022/07/11 13:02:15;;;;;;;3.08;2.50;;;21.70;99.90;;;;;;5091039;28;20258;-52
2022/07/11 13:04:47;;;;;;;2.92;2.72;;;21.80;99.90;;;;;;5079049;28;20204;-53
2022/07/11 13:10:15;;;;;;;5.63;2.63;;;21.30;99.90;;;;;;5081019;28;20200;-52
2022/07/11 13:12:45;;;;;;;2.67;2.40;;;21.10;99.90;;;;;;5089934;28;20281;-52